Time;durP1;ratioP1;P1;durP2;ratioP2;P2;SDS_P1;SDS_P2;PMS_P1;PMS_P2;Temp;Humidity;BMP_temperature;BMP_pressure;BME280_temperature;BME280_humidity;BME280_pressure;Samples;Min_cycle;Max_cycle;Signal;HPM_P1;HPM_P2
2024/01/04 00:00:00;;;;;;;0.40;0.40;;;7.20;99.90;;;;;;5018859;28;20022;-66
2024/01/04 00:02:30;;;;;;;0.50;0.30;;;7.10;99.90;;;;;;5018595;28;20022;-66
2024/01/04 00:04:56;;;;;;;0.40;0.40;;;7.10;99.90;;;;;;5019210;28;20042;-66
2024/01/04 00:07:21;;;;;;;1.38;0.50;;;7.10;99.90;;;;;;5017170;28;20027;-69
2024/01/04 00:09:48;;;;;;;0.60;0.43;;;7.10;99.90;;;;;;5019563;28;20553;-65
2024/01/04 00:12:14;;;;;;;0.35;0.30;;;7.10;99.90;;;;;;5019806;28;20026;-65
2024/01/04 00:14:40;;;;;;;0.60;0.30;;;7.10;99.90;;;;;;5017618;28;20033;-69
2024/01/04 00:17:06;;;;;;;2.08;0.50;;;7.10;99.90;;;;;;5017783;28;20030;-67
2024/01/04 00:19:32;;;;;;;0.30;0.30;;;7.10;99.90;;;;;;5019034;28;20068;-66
2024/01/04 00:21:57;;;;;;;0.80;0.40;;;7.00;99.90;;;;;;5018414;28;20022;-67
2024/01/04 00:24:23;;;;;;;0.70;0.30;;;7.00;99.90;;;;;;5020515;28;20441;-66
2024/01/04 00:26:49;;;;;;;0.40;0.40;;;7.00;99.90;;;;;;5019986;28;20034;-67
2024/01/04 00:29:14;;;;;;;2.05;0.40;;;7.00;99.90;;;;;;5019450;28;20052;-67
2024/01/04 00:31:41;;;;;;;0.32;0.32;;;7.00;99.90;;;;;;5022060;28;20080;-67
2024/01/04 00:34:07;;;;;;;0.68;0.30;;;7.00;99.90;;;;;;5020235;28;20036;-67
2024/01/04 00:36:32;;;;;;;0.75;0.40;;;7.00;99.90;;;;;;5018603;28;20026;-67
2024/01/04 00:38:59;;;;;;;0.35;0.30;;;7.00;99.90;;;;;;5018482;28;20520;-67
2024/01/04 00:41:25;;;;;;;0.32;0.30;;;7.00;99.90;;;;;;5018409;28;20033;-67
2024/01/04 00:43:50;;;;;;;1.38;0.50;;;7.00;99.90;;;;;;5020917;28;20486;-69
2024/01/04 00:46:16;;;;;;;0.55;0.40;;;7.00;99.90;;;;;;5017542;28;20022;-67
2024/01/04 00:48:41;;;;;;;1.52;0.40;;;7.10;99.90;;;;;;5020473;28;20418;-66
2024/01/04 00:51:07;;;;;;;4.18;0.40;;;7.10;99.90;;;;;;5018363;28;20037;-66
2024/01/04 00:53:33;;;;;;;1.67;0.57;;;7.10;99.90;;;;;;5022183;28;20052;-67
2024/01/04 00:55:59;;;;;;;1.65;0.55;;;7.10;99.90;;;;;;5019186;28;20041;-66
2024/01/04 00:58:25;;;;;;;1.13;0.45;;;7.20;99.90;;;;;;5019760;28;20026;-67
2024/01/04 01:00:50;;;;;;;1.38;1.15;;;7.20;99.90;;;;;;5019457;28;20026;-67
2024/01/04 01:03:16;;;;;;;1.02;0.70;;;7.20;99.90;;;;;;5020148;28;20117;-68
2024/01/04 01:05:42;;;;;;;2.67;0.60;;;7.20;99.90;;;;;;5020025;28;20053;-66
2024/01/04 01:08:07;;;;;;;2.75;0.50;;;7.20;99.90;;;;;;5016835;28;20033;-66
2024/01/04 01:10:34;;;;;;;0.70;0.50;;;7.20;99.90;;;;;;5017185;28;20478;-69
2024/01/04 01:13:00;;;;;;;1.13;0.50;;;7.20;99.90;;;;;;5018587;28;20025;-67
2024/01/04 01:15:26;;;;;;;0.80;0.40;;;7.10;99.90;;;;;;5021765;28;20026;-66
2024/01/04 01:17:51;;;;;;;0.50;0.45;;;7.20;99.90;;;;;;5020972;28;20091;-65
2024/01/04 01:20:17;;;;;;;1.42;0.50;;;7.20;99.90;;;;;;5016980;28;20025;-66
2024/01/04 01:22:43;;;;;;;1.73;0.60;;;7.20;99.90;;;;;;5016232;28;20037;-66
2024/01/04 01:25:08;;;;;;;0.90;0.63;;;7.30;99.90;;;;;;5017945;28;20126;-67
2024/01/04 01:27:34;;;;;;;0.93;0.40;;;7.30;99.90;;;;;;5020818;28;20405;-65
2024/01/04 01:30:00;;;;;;;1.42;0.40;;;7.40;99.90;;;;;;5019531;28;20056;-67
2024/01/04 01:32:25;;;;;;;1.35;0.47;;;7.40;99.90;;;;;;5020245;28;20039;-66
2024/01/04 01:34:52;;;;;;;0.25;0.25;;;7.40;99.90;;;;;;5018669;28;20034;-63
2024/01/04 01:37:17;;;;;;;2.05;0.32;;;7.50;99.90;;;;;;5019723;28;20083;-66
2024/01/04 01:39:43;;;;;;;1.60;0.40;;;7.50;99.90;;;;;;5018598;28;20047;-66
2024/01/04 01:42:09;;;;;;;0.65;0.40;;;7.60;99.90;;;;;;5019605;28;20048;-65
2024/01/04 01:44:34;;;;;;;0.85;0.30;;;7.50;99.90;;;;;;5022253;28;20075;-66
2024/01/04 01:47:00;;;;;;;0.70;0.38;;;7.60;99.90;;;;;;5016013;28;20084;-65
2024/01/04 01:49:26;;;;;;;0.30;0.30;;;7.60;99.90;;;;;;5018752;28;20021;-64
2024/01/04 01:51:53;;;;;;;0.40;0.40;;;7.50;99.90;;;;;;5018509;28;20030;-66
2024/01/04 01:54:19;;;;;;;1.60;0.30;;;7.50;99.90;;;;;;5019640;28;20029;-67
2024/01/04 01:56:45;;;;;;;1.17;0.40;;;7.50;99.90;;;;;;5021156;28;20576;-66
2024/01/04 01:59:12;;;;;;;0.40;0.40;;;7.50;99.90;;;;;;5019552;28;20116;-67
2024/01/04 02:01:37;;;;;;;1.00;0.30;;;7.40;99.90;;;;;;5023783;28;20417;-66
2024/01/04 02:04:03;;;;;;;0.40;0.30;;;7.40;99.90;;;;;;5020929;28;20014;-66
2024/01/04 02:06:29;;;;;;;2.03;0.35;;;7.30;99.90;;;;;;5018677;28;20033;-65
2024/01/04 02:08:55;;;;;;;0.30;0.30;;;7.30;99.90;;;;;;5018556;28;20038;-68
2024/01/04 02:11:22;;;;;;;0.30;0.30;;;7.30;99.90;;;;;;5020246;28;20028;-66
2024/01/04 02:13:48;;;;;;;0.30;0.30;;;7.20;99.90;;;;;;5020687;28;20037;-65
2024/01/04 02:16:14;;;;;;;1.38;0.40;;;7.20;99.90;;;;;;5023974;28;20496;-65
2024/01/04 02:18:40;;;;;;;1.65;0.50;;;7.20;99.90;;;;;;5019294;28;20042;-66
2024/01/04 02:21:06;;;;;;;1.55;0.50;;;7.30;99.90;;;;;;5021849;28;20061;-66
2024/01/04 02:23:32;;;;;;;0.90;0.40;;;7.30;99.90;;;;;;5021359;28;20029;-65
2024/01/04 02:25:57;;;;;;;2.65;0.40;;;7.30;99.90;;;;;;5024641;28;20030;-67
2024/01/04 02:28:23;;;;;;;1.45;0.40;;;7.30;99.90;;;;;;5021624;28;20018;-68
2024/01/04 02:30:49;;;;;;;0.30;0.30;;;7.20;99.90;;;;;;5023935;28;20163;-66
2024/01/04 02:33:14;;;;;;;0.32;0.32;;;7.20;99.90;;;;;;5022486;28;20030;-65
2024/01/04 02:35:40;;;;;;;1.45;0.50;;;7.20;99.90;;;;;;5022125;28;20067;-67
2024/01/04 02:38:05;;;;;;;0.77;0.35;;;7.30;99.90;;;;;;5022852;28;20828;-66
2024/01/04 02:40:34;;;;;;;0.38;0.30;;;7.30;99.90;;;;;;5023316;28;20640;-66
2024/01/04 02:42:59;;;;;;;0.80;0.50;;;7.30;99.90;;;;;;5023186;28;20034;-67
2024/01/04 02:45:25;;;;;;;0.50;0.40;;;7.30;99.90;;;;;;5019306;28;20036;-68
2024/01/04 02:47:50;;;;;;;0.35;0.30;;;7.30;99.90;;;;;;5019338;28;20402;-68
2024/01/04 02:50:18;;;;;;;1.33;0.52;;;7.20;99.90;;;;;;5018551;28;20052;-67
2024/01/04 02:52:44;;;;;;;1.00;0.50;;;7.20;99.90;;;;;;5021837;28;20022;-66
2024/01/04 02:55:10;;;;;;;1.27;1.13;;;7.20;99.90;;;;;;5022415;28;20109;-65
2024/01/04 02:57:35;;;;;;;0.32;0.32;;;7.20;99.90;;;;;;5022770;28;20113;-66
2024/01/04 03:00:01;;;;;;;0.50;0.20;;;7.20;99.90;;;;;;5023046;28;20076;-65
2024/01/04 03:02:26;;;;;;;0.90;0.30;;;7.20;99.90;;;;;;5018149;28;20033;-67
2024/01/04 03:04:52;;;;;;;0.50;0.30;;;7.10;99.90;;;;;;5023358;28;20030;-67
2024/01/04 03:07:18;;;;;;;0.90;0.30;;;7.10;99.90;;;;;;5023296;28;20440;-65
2024/01/04 03:09:43;;;;;;;0.90;0.30;;;7.10;99.90;;;;;;5019173;28;20084;-66
2024/01/04 03:12:09;;;;;;;0.35;0.30;;;7.10;99.90;;;;;;5019218;28;20034;-68
2024/01/04 03:14:35;;;;;;;0.35;0.30;;;7.10;99.90;;;;;;5020619;28;20030;-65
2024/01/04 03:17:00;;;;;;;0.73;0.30;;;7.10;99.90;;;;;;5021192;28;20022;-65
2024/01/04 03:19:26;;;;;;;0.30;0.30;;;7.10;99.90;;;;;;5019993;28;20028;-66
2024/01/04 03:21:51;;;;;;;0.30;0.30;;;7.10;99.90;;;;;;5022215;28;20475;-67
2024/01/04 03:24:17;;;;;;;0.30;0.30;;;7.00;99.90;;;;;;5026860;28;20120;-68
2024/01/04 03:26:42;;;;;;;0.50;0.40;;;7.00;99.90;;;;;;5022807;28;20490;-66
2024/01/04 03:29:08;;;;;;;0.30;0.22;;;7.00;99.90;;;;;;5023366;28;20037;-66
2024/01/04 03:31:34;;;;;;;0.30;0.30;;;7.00;99.90;;;;;;5018825;28;20022;-67
2024/01/04 03:33:59;;;;;;;0.47;0.22;;;7.10;99.90;;;;;;5019587;28;20017;-67
2024/01/04 03:36:25;;;;;;;1.05;0.38;;;7.10;99.90;;;;;;5018590;28;20525;-67
2024/01/04 03:38:51;;;;;;;0.63;0.32;;;7.10;99.90;;;;;;5014945;28;20585;-66
2024/01/04 03:41:16;;;;;;;0.63;0.40;;;7.10;99.90;;;;;;5017843;28;20452;-67
2024/01/04 03:43:42;;;;;;;0.43;0.22;;;7.10;99.90;;;;;;5018917;28;20432;-66
2024/01/04 03:46:11;;;;;;;0.85;0.47;;;7.10;99.90;;;;;;5021007;28;20029;-66
2024/01/04 03:48:36;;;;;;;0.32;0.32;;;7.10;99.90;;;;;;5021091;28;20026;-66
2024/01/04 03:51:02;;;;;;;0.20;0.20;;;7.00;99.90;;;;;;5019492;28;20030;-66
2024/01/04 03:53:28;;;;;;;0.30;0.30;;;7.00;99.90;;;;;;5023163;28;20026;-67
2024/01/04 03:55:54;;;;;;;0.35;0.30;;;6.90;99.90;;;;;;5018624;28;20049;-66
2024/01/04 03:58:19;;;;;;;1.20;0.40;;;6.90;99.90;;;;;;5023170;28;20032;-66
2024/01/04 04:00:45;;;;;;;1.35;0.30;;;6.90;99.90;;;;;;5020420;28;20041;-66
2024/01/04 04:03:11;;;;;;;0.70;0.40;;;6.90;99.90;;;;;;5020337;28;20087;-67
2024/01/04 04:05:36;;;;;;;3.05;2.25;;;6.90;99.90;;;;;;5021156;28;20041;-66
2024/01/04 04:08:02;;;;;;;1.33;0.50;;;6.90;99.90;;;;;;5020370;28;20371;-66
2024/01/04 04:10:28;;;;;;;0.40;0.40;;;7.00;99.90;;;;;;5022246;28;20025;-65
2024/01/04 04:12:53;;;;;;;1.00;0.35;;;7.00;99.90;;;;;;5019382;28;20029;-67
2024/01/04 04:15:19;;;;;;;1.08;0.35;;;7.10;99.90;;;;;;5019090;28;20040;-67
2024/01/04 04:17:45;;;;;;;0.88;0.40;;;7.10;99.90;;;;;;5015512;28;20041;-69
2024/01/04 04:20:11;;;;;;;1.70;0.47;;;7.10;99.90;;;;;;5018608;28;20398;-67
2024/01/04 04:22:36;;;;;;;0.50;0.45;;;7.10;99.90;;;;;;5016277;28;20025;-65
2024/01/04 04:25:02;;;;;;;0.32;0.30;;;7.00;99.90;;;;;;5015268;28;20026;-65
2024/01/04 04:27:27;;;;;;;0.55;0.40;;;7.10;99.90;;;;;;5022965;28;20034;-66
2024/01/04 04:29:53;;;;;;;0.60;0.30;;;7.00;99.90;;;;;;5020943;28;20132;-67
2024/01/04 04:32:19;;;;;;;3.35;0.47;;;7.10;99.90;;;;;;5017154;28;20116;-66
2024/01/04 04:34:44;;;;;;;0.55;0.28;;;7.10;99.90;;;;;;5016108;28;20044;-66
2024/01/04 04:37:10;;;;;;;0.43;0.30;;;7.10;99.90;;;;;;5022361;28;20044;-66
2024/01/04 04:39:36;;;;;;;3.30;1.02;;;7.10;99.90;;;;;;5019923;28;20116;-66
2024/01/04 04:42:01;;;;;;;0.40;0.40;;;7.10;99.90;;;;;;5019888;28;20468;-68
2024/01/04 04:44:27;;;;;;;0.63;0.30;;;7.10;99.90;;;;;;5021599;28;20120;-66
2024/01/04 04:46:53;;;;;;;0.85;0.50;;;7.10;99.90;;;;;;5017391;28;20026;-66
2024/01/04 04:49:19;;;;;;;0.75;0.30;;;7.10;99.90;;;;;;5020523;28;20053;-66
2024/01/04 04:51:48;;;;;;;1.08;0.40;;;7.20;99.90;;;;;;5018713;28;20033;-66
2024/01/04 04:54:16;;;;;;;2.15;0.82;;;7.20;99.90;;;;;;5018674;28;20125;-66
2024/01/04 04:56:42;;;;;;;0.50;0.30;;;7.20;99.90;;;;;;5017025;28;20041;-65
2024/01/04 04:59:08;;;;;;;0.38;0.32;;;7.20;99.90;;;;;;5025009;28;20026;-66
2024/01/04 05:01:34;;;;;;;0.45;0.40;;;7.30;99.90;;;;;;5018312;28;20064;-67
2024/01/04 05:04:00;;;;;;;1.98;0.98;;;7.30;99.90;;;;;;5020197;28;20010;-65
2024/01/04 05:06:25;;;;;;;0.90;0.40;;;7.30;99.90;;;;;;5020943;28;20034;-65
2024/01/04 05:08:51;;;;;;;0.43;0.28;;;7.30;99.90;;;;;;5019624;28;20026;-67
2024/01/04 05:11:17;;;;;;;2.28;0.65;;;7.30;99.90;;;;;;5016304;28;20026;-64
2024/01/04 05:13:43;;;;;;;1.17;0.30;;;7.30;99.90;;;;;;5021554;28;20037;-67
2024/01/04 05:16:08;;;;;;;0.20;0.20;;;7.30;99.90;;;;;;5019875;28;20029;-66
2024/01/04 05:18:34;;;;;;;1.35;0.35;;;7.30;99.90;;;;;;5017341;28;20101;-66
2024/01/04 05:20:59;;;;;;;0.45;0.30;;;7.30;99.90;;;;;;5017991;28;20013;-66
2024/01/04 05:23:25;;;;;;;1.38;0.75;;;7.30;99.90;;;;;;5017291;28;20022;-65
2024/01/04 05:25:51;;;;;;;0.32;0.32;;;7.40;99.90;;;;;;5017535;28;20079;-67
2024/01/04 05:28:17;;;;;;;0.50;0.30;;;7.40;99.90;;;;;;5016301;28;20021;-68
2024/01/04 05:30:42;;;;;;;1.95;1.30;;;7.50;99.90;;;;;;5020738;28;20568;-65
2024/01/04 05:33:08;;;;;;;0.30;0.25;;;7.40;99.90;;;;;;5017144;28;20101;-67
2024/01/04 05:35:33;;;;;;;0.40;0.40;;;7.40;99.90;;;;;;5019674;28;20029;-66
2024/01/04 05:37:59;;;;;;;1.02;0.30;;;7.50;99.90;;;;;;5018886;28;20022;-68
2024/01/04 05:40:24;;;;;;;1.55;0.30;;;7.50;99.90;;;;;;5018104;28;20525;-66
2024/01/04 05:42:50;;;;;;;0.52;0.32;;;7.50;99.90;;;;;;5021173;28;20026;-66
2024/01/04 05:45:16;;;;;;;1.33;0.30;;;7.50;99.90;;;;;;5018477;28;20482;-67
2024/01/04 05:47:41;;;;;;;0.80;0.30;;;7.40;99.90;;;;;;5020887;28;20490;-65
2024/01/04 05:50:07;;;;;;;0.80;0.63;;;7.40;99.90;;;;;;5024057;28;20149;-66
2024/01/04 05:52:33;;;;;;;0.30;0.30;;;7.40;99.90;;;;;;5021430;28;20143;-64
2024/01/04 05:54:59;;;;;;;1.15;0.30;;;7.50;99.90;;;;;;5019411;28;20025;-66
2024/01/04 05:57:28;;;;;;;5.28;0.30;;;7.40;99.90;;;;;;5018440;28;20029;-66
2024/01/04 05:59:54;;;;;;;0.60;0.20;;;7.40;99.90;;;;;;5018837;28;20021;-66
2024/01/04 06:02:19;;;;;;;0.30;0.30;;;7.40;99.90;;;;;;5019814;28;20517;-66
2024/01/04 06:04:45;;;;;;;0.20;0.20;;;7.40;99.90;;;;;;5019342;28;20034;-68
2024/01/04 06:07:11;;;;;;;0.20;0.20;;;7.40;99.90;;;;;;5019414;28;20087;-66
2024/01/04 06:09:36;;;;;;;0.50;0.30;;;7.40;99.90;;;;;;5020386;28;20033;-67
2024/01/04 06:12:02;;;;;;;1.05;0.30;;;7.50;99.90;;;;;;5014966;28;20045;-66
2024/01/04 06:14:31;;;;;;;0.75;0.30;;;7.50;99.90;;;;;;5018115;28;20434;-66
2024/01/04 06:16:58;;;;;;;0.28;0.28;;;7.50;99.90;;;;;;5019243;28;20025;-68
2024/01/04 06:19:25;;;;;;;0.30;0.30;;;7.50;99.90;;;;;;5018718;28;20017;-69
2024/01/04 06:21:51;;;;;;;0.25;0.22;;;7.50;99.90;;;;;;5019113;28;20022;-68
2024/01/04 06:24:16;;;;;;;0.63;0.25;;;7.50;99.90;;;;;;5018855;28;20390;-68
2024/01/04 06:26:42;;;;;;;0.32;0.30;;;7.50;99.90;;;;;;5018562;28;20408;-65
2024/01/04 06:29:08;;;;;;;0.85;0.10;;;7.50;99.90;;;;;;5018445;28;20486;-64
2024/01/04 06:31:33;;;;;;;0.43;0.30;;;7.50;99.90;;;;;;5000922;28;20037;-66
2024/01/04 06:33:59;;;;;;;0.65;0.30;;;7.60;99.90;;;;;;5020640;28;20032;-66
2024/01/04 06:36:25;;;;;;;0.30;0.30;;;7.60;99.90;;;;;;5016173;28;20038;-67
2024/01/04 06:38:50;;;;;;;1.50;0.77;;;7.60;99.90;;;;;;5019694;28;20029;-68
2024/01/04 06:41:19;;;;;;;0.40;0.30;;;7.60;99.90;;;;;;5018631;28;20109;-66
2024/01/04 06:43:45;;;;;;;0.30;0.30;;;7.60;99.90;;;;;;5020261;28;20053;-66
2024/01/04 06:46:11;;;;;;;0.43;0.20;;;7.60;99.90;;;;;;5018562;28;20105;-66
2024/01/04 06:48:37;;;;;;;2.17;0.30;;;7.60;99.90;;;;;;5024818;28;20466;-67
2024/01/04 06:51:03;;;;;;;0.50;0.30;;;7.60;99.90;;;;;;5023799;28;20025;-67
2024/01/04 06:53:28;;;;;;;0.63;0.30;;;7.60;99.90;;;;;;5022794;28;20422;-67
2024/01/04 06:55:54;;;;;;;0.40;0.40;;;7.60;99.90;;;;;;5023232;28;20057;-67
2024/01/04 06:58:20;;;;;;;2.15;0.40;;;7.60;99.90;;;;;;5021804;28;20493;-67
2024/01/04 07:00:46;;;;;;;0.30;0.30;;;7.60;99.90;;;;;;5021877;28;20114;-66
2024/01/04 07:03:11;;;;;;;2.13;0.30;;;7.60;99.90;;;;;;5021227;28;20091;-65
2024/01/04 07:05:37;;;;;;;0.55;0.40;;;7.60;99.90;;;;;;5022868;28;20517;-66
2024/01/04 07:08:03;;;;;;;0.70;0.30;;;7.60;99.90;;;;;;5023760;28;20042;-67
2024/01/04 07:10:29;;;;;;;0.32;0.30;;;7.60;99.90;;;;;;5023772;28;20032;-68
2024/01/04 07:12:54;;;;;;;1.63;0.40;;;7.60;99.90;;;;;;5024554;28;20096;-67
2024/01/04 07:15:20;;;;;;;0.30;0.30;;;7.60;99.90;;;;;;5022338;28;20026;-68
2024/01/04 07:17:46;;;;;;;1.15;0.35;;;7.70;99.90;;;;;;5019628;28;20029;-67
2024/01/04 07:20:12;;;;;;;0.30;0.30;;;7.70;99.90;;;;;;5022430;28;20034;-66
2024/01/04 07:22:37;;;;;;;0.73;0.30;;;7.70;99.90;;;;;;5019083;28;20032;-65
2024/01/04 07:25:03;;;;;;;0.43;0.30;;;7.80;99.90;;;;;;5018202;28;20029;-66
2024/01/04 07:27:29;;;;;;;0.20;0.20;;;7.80;99.90;;;;;;5024950;28;20033;-69
2024/01/04 07:29:56;;;;;;;0.47;0.32;;;7.80;99.90;;;;;;5019973;28;20034;-69
2024/01/04 07:32:22;;;;;;;0.50;0.25;;;7.80;99.90;;;;;;5021829;28;20036;-69
2024/01/04 07:34:47;;;;;;;0.35;0.30;;;7.80;99.90;;;;;;5022357;28;20034;-67
2024/01/04 07:37:14;;;;;;;0.85;0.30;;;7.80;99.90;;;;;;5023368;28;20753;-67
2024/01/04 07:39:41;;;;;;;1.02;0.40;;;7.80;99.90;;;;;;5020832;28;20045;-66
2024/01/04 07:42:07;;;;;;;0.30;0.22;;;7.80;99.90;;;;;;5023067;28;20037;-65
2024/01/04 07:44:33;;;;;;;0.70;0.40;;;7.80;99.90;;;;;;5019076;28;20018;-65
2024/01/04 07:46:58;;;;;;;0.80;0.30;;;7.80;99.90;;;;;;5019632;28;20084;-66
2024/01/04 07:49:24;;;;;;;0.60;0.30;;;7.80;99.90;;;;;;5022849;28;20351;-68
2024/01/04 07:51:51;;;;;;;0.20;0.20;;;7.80;99.90;;;;;;5020158;28;20040;-68
2024/01/04 07:54:17;;;;;;;0.85;0.30;;;7.80;99.90;;;;;;5019418;28;20160;-66
2024/01/04 07:56:43;;;;;;;0.30;0.20;;;7.80;99.90;;;;;;5019810;28;20077;-66
2024/01/04 07:59:09;;;;;;;0.35;0.20;;;7.70;99.90;;;;;;5022506;28;20025;-66
2024/01/04 08:01:34;;;;;;;0.30;0.30;;;7.60;99.90;;;;;;5021828;28;20020;-66
2024/01/04 08:04:00;;;;;;;0.38;0.38;;;7.60;99.90;;;;;;5024542;28;20025;-66
2024/01/04 08:06:25;;;;;;;1.33;0.50;;;7.60;99.90;;;;;;5024612;28;20060;-66
2024/01/04 08:08:52;;;;;;;0.73;0.50;;;7.60;99.90;;;;;;5023718;28;20026;-66
2024/01/04 08:11:18;;;;;;;0.55;0.40;;;7.70;99.90;;;;;;5023676;28;20021;-66
2024/01/04 08:13:45;;;;;;;0.30;0.30;;;7.70;99.90;;;;;;5021371;28;20030;-66
2024/01/04 08:16:11;;;;;;;0.73;0.65;;;7.70;99.90;;;;;;5022923;28;20037;-67
2024/01/04 08:18:37;;;;;;;0.50;0.50;;;7.70;99.90;;;;;;5020900;28;20026;-66
2024/01/04 08:21:02;;;;;;;0.50;0.35;;;7.70;99.90;;;;;;5024921;28;20632;-67
2024/01/04 08:23:28;;;;;;;2.80;0.30;;;7.60;99.90;;;;;;5022690;28;20041;-67
2024/01/04 08:25:56;;;;;;;0.47;0.47;;;7.60;99.90;;;;;;5019124;28;20028;-66
2024/01/04 08:28:22;;;;;;;0.40;0.40;;;7.50;99.90;;;;;;5022747;28;20079;-64
2024/01/04 08:30:47;;;;;;;0.32;0.32;;;7.40;99.90;;;;;;5022499;28;20593;-67
2024/01/04 08:33:13;;;;;;;0.30;0.30;;;7.40;99.90;;;;;;5022877;28;20037;-67
2024/01/04 08:35:39;;;;;;;0.45;0.40;;;7.30;99.90;;;;;;5019709;28;20500;-66
2024/01/04 08:38:05;;;;;;;1.10;0.30;;;7.30;99.90;;;;;;5016719;28;20042;-66
2024/01/04 08:40:30;;;;;;;0.30;0.30;;;7.30;99.90;;;;;;5017332;28;20088;-67
2024/01/04 08:42:59;;;;;;;0.73;0.30;;;7.30;99.90;;;;;;5024291;28;20018;-66
2024/01/04 08:45:25;;;;;;;1.17;0.28;;;7.30;99.90;;;;;;5017652;28;20032;-66
2024/01/04 08:47:50;;;;;;;0.80;0.40;;;7.40;99.90;;;;;;5019443;28;20034;-67
2024/01/04 08:50:16;;;;;;;0.40;0.40;;;7.40;99.90;;;;;;5018267;28;20038;-67
2024/01/04 08:52:41;;;;;;;1.17;0.32;;;7.40;99.90;;;;;;5018345;28;20034;-67
2024/01/04 08:55:07;;;;;;;0.57;0.35;;;7.40;99.90;;;;;;5020759;28;20056;-67
2024/01/04 08:57:33;;;;;;;0.98;0.30;;;7.40;99.90;;;;;;5019649;28;20108;-66
2024/01/04 08:59:59;;;;;;;0.75;0.32;;;7.40;99.90;;;;;;5021148;28;20116;-66
2024/01/04 09:02:25;;;;;;;0.40;0.40;;;7.40;99.90;;;;;;5017848;28;20033;-66
2024/01/04 09:04:51;;;;;;;0.63;0.30;;;7.40;99.90;;;;;;5021700;28;20043;-66
2024/01/04 09:07:19;;;;;;;0.30;0.30;;;7.30;99.90;;;;;;5021808;28;20544;-66
2024/01/04 09:09:44;;;;;;;0.47;0.30;;;7.30;99.90;;;;;;5021625;28;20034;-67
2024/01/04 09:12:10;;;;;;;0.50;0.30;;;7.30;99.90;;;;;;5020632;28;20025;-68
2024/01/04 09:14:35;;;;;;;0.43;0.35;;;7.30;99.90;;;;;;5021216;28;20072;-67
2024/01/04 09:17:01;;;;;;;0.40;0.20;;;7.20;99.90;;;;;;5018972;28;20128;-66
2024/01/04 09:19:27;;;;;;;0.43;0.30;;;7.20;99.90;;;;;;5022180;28;20068;-66
2024/01/04 09:21:52;;;;;;;34.25;18.77;;;7.20;99.90;;;;;;5019752;28;20492;-68
2024/01/04 09:24:18;;;;;;;0.30;0.30;;;7.20;99.90;;;;;;5019442;28;20552;-66
2024/01/04 09:26:45;;;;;;;0.35;0.35;;;7.30;99.90;;;;;;5021322;28;20029;-67
2024/01/04 09:29:15;;;;;;;0.57;0.40;;;7.20;99.90;;;;;;5019788;28;20077;-68
2024/01/04 09:31:41;;;;;;;2.75;0.50;;;7.20;99.90;;;;;;5020619;28;20033;-67
2024/01/04 09:34:08;;;;;;;0.82;0.20;;;7.20;99.90;;;;;;5017582;28;20032;-66
2024/01/04 09:36:33;;;;;;;1.10;0.82;;;7.20;99.90;;;;;;5018822;28;20033;-66
2024/01/04 09:38:59;;;;;;;0.32;0.30;;;7.20;99.90;;;;;;5019276;28;20071;-66
2024/01/04 09:41:31;;;;;;;1.02;0.30;;;7.20;99.90;;;;;;5018072;28;20112;-68
2024/01/04 09:44:03;;;;;;;0.32;0.32;;;7.20;99.90;;;;;;5017698;28;20596;-66
2024/01/04 09:46:39;;;;;;;0.20;0.20;;;7.20;99.90;;;;;;5019654;28;20087;-67
2024/01/04 09:49:06;;;;;;;0.20;0.20;;;7.20;99.90;;;;;;5018437;28;20014;-67
2024/01/04 09:51:38;;;;;;;0.30;0.30;;;7.20;99.90;;;;;;5015567;28;20045;-67
2024/01/04 09:54:03;;;;;;;;;;;7.20;99.90;;;;;;5017793;28;20026;-67
2024/01/04 09:56:30;;;;;;;0.20;0.20;;;7.30;99.90;;;;;;5019847;28;19917;-66
2024/01/04 09:58:56;;;;;;;0.20;0.20;;;7.40;99.90;;;;;;5019159;28;20067;-66
2024/01/04 10:01:30;;;;;;;0.20;0.20;;;7.60;99.90;;;;;;5021984;28;20423;-66
2024/01/04 10:03:59;;;;;;;0.43;0.30;;;7.70;99.90;;;;;;5020325;28;20025;-68
2024/01/04 10:06:30;;;;;;;0.93;0.70;;;7.80;99.90;;;;;;5022614;28;20029;-67
2024/01/04 10:08:56;;;;;;;;;;;7.90;99.90;;;;;;5019927;28;20057;-68
2024/01/04 10:11:28;;;;;;;0.95;0.95;;;7.90;99.90;;;;;;5018486;28;19917;-66
2024/01/04 10:13:54;;;;;;;1.23;1.08;;;7.90;99.90;;;;;;5018574;28;20079;-68
2024/01/04 10:16:19;;;;;;;0.60;0.40;;;7.90;99.90;;;;;;5021243;28;20030;-67
2024/01/04 10:18:45;;;;;;;0.57;0.50;;;7.80;99.90;;;;;;5022693;28;20018;-65
2024/01/04 10:21:11;;;;;;;0.90;0.50;;;7.80;99.90;;;;;;5024523;28;20457;-68
2024/01/04 10:23:37;;;;;;;1.15;0.40;;;7.70;99.90;;;;;;5022957;28;20034;-69
2024/01/04 10:26:09;;;;;;;0.40;0.40;;;7.70;99.90;;;;;;5025027;28;20037;-70
2024/01/04 10:28:38;;;;;;;0.88;0.40;;;7.70;99.90;;;;;;5027377;28;20022;-69
2024/01/04 10:31:08;;;;;;;0.40;0.40;;;7.70;99.90;;;;;;5025583;28;20497;-68
2024/01/04 10:33:35;;;;;;;1.23;0.40;;;7.80;99.90;;;;;;5024879;28;20485;-66
2024/01/04 10:36:09;;;;;;;1.40;0.40;;;7.80;99.90;;;;;;5026160;28;20121;-66
2024/01/04 10:38:36;;;;;;;1.10;0.73;;;7.70;99.90;;;;;;5026269;28;20091;-66
2024/01/04 10:41:02;;;;;;;0.82;0.50;;;7.70;99.90;;;;;;5022138;28;20018;-67
2024/01/04 10:43:28;;;;;;;0.95;0.40;;;7.70;99.90;;;;;;5020653;28;20075;-66
2024/01/04 10:46:02;;;;;;;0.90;0.50;;;7.70;99.90;;;;;;5022299;28;20037;-68
2024/01/04 10:48:28;;;;;;;0.63;0.32;;;7.70;99.90;;;;;;5023214;28;20513;-67
2024/01/04 10:50:56;;;;;;;0.47;0.32;;;7.80;99.90;;;;;;5022165;28;20036;-67
2024/01/04 10:53:25;;;;;;;3.45;3.22;;;7.80;99.90;;;;;;5022844;28;20033;-65
2024/01/04 10:55:52;;;;;;;1.40;0.95;;;7.90;99.90;;;;;;5024153;28;20499;-65
2024/01/04 10:58:20;;;;;;;1.00;0.68;;;8.00;99.90;;;;;;5026024;28;20026;-68
2024/01/04 11:00:47;;;;;;;0.30;0.30;;;8.00;99.90;;;;;;5022614;28;20470;-66
2024/01/04 11:03:12;;;;;;;0.88;0.80;;;8.10;99.90;;;;;;5023164;28;20488;-67
2024/01/04 11:05:41;;;;;;;1.70;1.48;;;8.10;99.90;;;;;;5023376;28;20489;-66
2024/01/04 11:08:08;;;;;;;0.40;0.40;;;8.10;99.90;;;;;;5023110;28;20033;-66
2024/01/04 11:10:34;;;;;;;0.30;0.30;;;8.20;99.90;;;;;;5022028;28;20030;-68
2024/01/04 11:13:01;;;;;;;0.47;0.40;;;8.20;99.90;;;;;;5020961;28;20024;-67
2024/01/04 11:15:27;;;;;;;0.60;0.50;;;8.30;99.90;;;;;;5023322;28;20054;-66
2024/01/04 11:18:16;;;;;;;1.10;1.00;;;8.30;99.90;;;;;;5025644;28;20064;-66
2024/01/04 11:21:13;;;;;;;0.52;0.52;;;8.40;99.90;;;;;;5019519;28;20036;-66
2024/01/04 11:24:11;;;;;;;0.50;0.50;;;8.40;99.90;;;;;;5027561;28;20117;-66
2024/01/04 11:26:52;;;;;;;0.68;0.30;;;8.40;99.90;;;;;;5020151;28;20083;-65
2024/01/04 11:29:19;;;;;;;0.47;0.47;;;8.40;99.90;;;;;;5021995;28;20048;-66
2024/01/04 11:31:45;;;;;;;0.47;0.30;;;8.30;99.90;;;;;;5021669;28;20022;-65
2024/01/04 11:34:14;;;;;;;1.02;0.30;;;8.30;99.90;;;;;;5022321;28;20623;-66
2024/01/04 11:36:39;;;;;;;0.82;0.40;;;8.20;99.90;;;;;;5020842;28;20041;-66
2024/01/04 11:39:05;;;;;;;1.13;0.77;;;8.30;99.90;;;;;;5023629;28;20040;-65
2024/01/04 11:41:35;;;;;;;1.60;1.20;;;8.30;99.90;;;;;;5023093;28;20116;-66
2024/01/04 11:44:02;;;;;;;0.38;0.30;;;8.40;99.90;;;;;;5018731;28;20080;-67
2024/01/04 11:46:28;;;;;;;0.40;0.38;;;8.40;99.90;;;;;;5022447;28;20029;-67
2024/01/04 11:49:01;;;;;;;0.45;0.40;;;8.50;99.90;;;;;;5023826;28;20093;-65
2024/01/04 11:51:35;;;;;;;0.57;0.57;;;8.60;99.90;;;;;;5025446;28;20032;-65
2024/01/04 11:54:01;;;;;;;0.55;0.55;;;8.60;99.90;;;;;;5020288;28;20418;-67
2024/01/04 11:56:27;;;;;;;0.30;0.30;;;8.60;99.90;;;;;;5024102;28;20042;-66
2024/01/04 11:58:52;;;;;;;0.45;0.30;;;8.60;99.90;;;;;;5021706;28;20091;-69
2024/01/04 12:01:24;;;;;;;0.30;0.30;;;8.50;99.90;;;;;;5022269;28;20021;-67
2024/01/04 12:03:54;;;;;;;0.32;0.30;;;8.50;99.90;;;;;;5020628;28;20053;-66
2024/01/04 12:06:21;;;;;;;0.73;0.40;;;8.40;99.90;;;;;;5022288;28;20041;-66
2024/01/04 12:08:51;;;;;;;0.20;0.20;;;8.40;99.90;;;;;;5019048;28;20030;-68
2024/01/04 12:11:19;;;;;;;1.00;0.20;;;8.30;99.90;;;;;;5021412;28;20030;-67
2024/01/04 12:13:45;;;;;;;0.30;0.20;;;8.30;99.90;;;;;;5024493;28;20720;-65
2024/01/04 12:16:11;;;;;;;0.40;0.20;;;8.30;99.90;;;;;;5020707;28;20104;-67
2024/01/04 12:18:37;;;;;;;0.20;0.20;;;8.30;99.90;;;;;;5019633;28;20708;-65
2024/01/04 12:21:07;;;;;;;0.20;0.20;;;8.20;99.90;;;;;;5019103;28;20486;-66
2024/01/04 12:23:34;;;;;;;0.20;0.20;;;8.20;99.90;;;;;;5021720;28;20392;-66
2024/01/04 12:26:00;;;;;;;0.20;0.20;;;8.00;99.90;;;;;;5021572;28;20139;-67
2024/01/04 12:28:27;;;;;;;0.50;0.40;;;7.90;99.90;;;;;;5018176;28;20096;-67
2024/01/04 12:30:53;;;;;;;0.30;0.30;;;7.80;99.90;;;;;;5016653;28;20076;-67
2024/01/04 12:33:18;;;;;;;0.20;0.20;;;7.80;99.90;;;;;;5021843;28;20436;-66
2024/01/04 12:35:44;;;;;;;0.63;0.30;;;7.80;99.90;;;;;;5019324;28;20084;-66
2024/01/04 12:38:10;;;;;;;0.40;0.40;;;7.90;99.90;;;;;;5019336;28;20052;-66
2024/01/04 12:40:41;;;;;;;0.50;0.30;;;7.90;99.90;;;;;;5019900;28;20077;-66
2024/01/04 12:43:10;;;;;;;0.30;0.30;;;7.90;99.90;;;;;;5017766;28;20087;-67
2024/01/04 12:45:36;;;;;;;1.10;0.30;;;8.00;99.90;;;;;;5019530;28;20069;-65
2024/01/04 12:48:02;;;;;;;0.50;0.30;;;8.00;99.90;;;;;;5014979;28;20553;-66
2024/01/04 12:50:32;;;;;;;0.40;0.28;;;8.00;99.90;;;;;;5019384;28;20025;-67
2024/01/04 12:52:58;;;;;;;0.28;0.25;;;8.10;99.90;;;;;;5021572;28;20109;-66